sensor_id;sensor_type;location;lat;lon;timestamp;pressure;altitude;pressure_sealevel;temperature;humidity
250;BME280;109;19.806;-70.704;2024-03-08T00:00:09;101291.50;;;28.21;46.26
250;BME280;109;19.806;-70.704;2024-03-08T00:02:39;101292.34;;;28.11;45.97
250;BME280;109;19.806;-70.704;2024-03-08T00:05:06;101292.00;;;28.27;46.06
250;BME280;109;19.806;-70.704;2024-03-08T00:07:35;101293.13;;;28.24;45.85
250;BME280;109;19.806;-70.704;2024-03-08T00:10:06;101288.03;;;28.19;46.44
250;BME280;109;19.806;-70.704;2024-03-08T00:12:33;101289.53;;;28.23;46.39
250;BME280;109;19.806;-70.704;2024-03-08T00:14:59;101290.63;;;28.21;46.05
250;BME280;109;19.806;-70.704;2024-03-08T00:17:26;101294.84;;;28.25;46.16
250;BME280;109;19.806;-70.704;2024-03-08T00:19:53;101314.88;;;28.11;46.38
250;BME280;109;19.806;-70.704;2024-03-08T00:22:19;101319.50;;;27.98;46.55
250;BME280;109;19.806;-70.704;2024-03-08T00:24:45;101332.06;;;27.99;47.12
250;BME280;109;19.806;-70.704;2024-03-08T00:27:12;101325.72;;;27.87;46.83
250;BME280;109;19.806;-70.704;2024-03-08T00:29:38;101327.59;;;27.98;46.80
250;BME280;109;19.806;-70.704;2024-03-08T00:32:05;101324.38;;;27.93;46.37
250;BME280;109;19.806;-70.704;2024-03-08T00:34:31;101325.84;;;27.86;46.53
250;BME280;109;19.806;-70.704;2024-03-08T00:36:58;101336.97;;;27.70;47.12
250;BME280;109;19.806;-70.704;2024-03-08T00:39:24;101341.75;;;27.54;47.36
250;BME280;109;19.806;-70.704;2024-03-08T00:41:51;101345.44;;;27.66;47.07
250;BME280;109;19.806;-70.704;2024-03-08T00:44:18;101356.44;;;27.75;47.03
250;BME280;109;19.806;-70.704;2024-03-08T00:46:44;101359.03;;;27.77;46.72
250;BME280;109;19.806;-70.704;2024-03-08T00:49:11;101358.88;;;27.91;46.70
250;BME280;109;19.806;-70.704;2024-03-08T00:51:38;101374.34;;;27.89;46.89
250;BME280;109;19.806;-70.704;2024-03-08T00:54:05;101370.25;;;27.83;46.73
250;BME280;109;19.806;-70.704;2024-03-08T00:56:32;101375.78;;;27.82;45.83
250;BME280;109;19.806;-70.704;2024-03-08T00:58:59;101366.84;;;27.92;45.69
250;BME280;109;19.806;-70.704;2024-03-08T01:01:50;101374.47;;;27.87;46.10
250;BME280;109;19.806;-70.704;2024-03-08T01:04:41;101386.66;;;27.69;46.01
250;BME280;109;19.806;-70.704;2024-03-08T01:07:36;101388.41;;;27.94;46.23
250;BME280;109;19.806;-70.704;2024-03-08T01:10:28;101386.22;;;27.99;46.19
250;BME280;109;19.806;-70.704;2024-03-08T01:13:19;101386.72;;;27.80;46.35
250;BME280;109;19.806;-70.704;2024-03-08T01:16:11;101382.28;;;27.79;45.92
250;BME280;109;19.806;-70.704;2024-03-08T01:19:02;101378.78;;;27.66;46.67
250;BME280;109;19.806;-70.704;2024-03-08T01:21:53;101382.78;;;27.61;46.82
250;BME280;109;19.806;-70.704;2024-03-08T01:24:48;101374.44;;;27.76;46.52
250;BME280;109;19.806;-70.704;2024-03-08T01:27:39;101380.88;;;27.86;46.31
250;BME280;109;19.806;-70.704;2024-03-08T01:30:31;101381.81;;;27.62;46.47
250;BME280;109;19.806;-70.704;2024-03-08T01:33:24;101392.44;;;27.65;46.55
250;BME280;109;19.806;-70.704;2024-03-08T01:36:16;101389.75;;;27.52;46.01
250;BME280;109;19.806;-70.704;2024-03-08T01:39:07;101389.16;;;27.36;46.97
250;BME280;109;19.806;-70.704;2024-03-08T01:41:59;101401.88;;;27.46;47.12
250;BME280;109;19.806;-70.704;2024-03-08T01:44:52;101390.22;;;27.33;46.81
250;BME280;109;19.806;-70.704;2024-03-08T01:47:43;101397.09;;;27.26;46.67
250;BME280;109;19.806;-70.704;2024-03-08T01:50:35;101403.28;;;27.39;46.64
250;BME280;109;19.806;-70.704;2024-03-08T01:53:27;101398.91;;;27.62;46.13
250;BME280;109;19.806;-70.704;2024-03-08T10:53:59;101415.03;;;24.85;48.55
250;BME280;109;19.806;-70.704;2024-03-08T10:56:29;101416.19;;;24.81;48.26
250;BME280;109;19.806;-70.704;2024-03-08T10:58:56;101418.03;;;24.95;47.87
250;BME280;109;19.806;-70.704;2024-03-08T11:01:22;101430.63;;;24.80;48.52
250;BME280;109;19.806;-70.704;2024-03-08T11:03:52;101429.75;;;24.80;48.22
250;BME280;109;19.806;-70.704;2024-03-08T11:09:10;101434.00;;;24.98;48.28
250;BME280;109;19.806;-70.704;2024-03-08T11:11:43;101442.38;;;24.93;48.01
250;BME280;109;19.806;-70.704;2024-03-08T11:14:42;101460.38;;;25.07;47.68
250;BME280;109;19.806;-70.704;2024-03-08T11:17:09;101461.25;;;24.93;48.25
250;BME280;109;19.806;-70.704;2024-03-08T11:19:36;101462.41;;;24.89;47.88
250;BME280;109;19.806;-70.704;2024-03-08T11:22:03;101456.94;;;24.91;47.96
250;BME280;109;19.806;-70.704;2024-03-08T11:24:39;101463.00;;;25.08;47.77
250;BME280;109;19.806;-70.704;2024-03-08T11:27:06;101460.38;;;25.07;47.79
250;BME280;109;19.806;-70.704;2024-03-08T11:29:35;101468.13;;;25.13;47.84
250;BME280;109;19.806;-70.704;2024-03-08T11:32:08;101472.16;;;25.20;47.66
250;BME280;109;19.806;-70.704;2024-03-08T11:34:43;101473.72;;;25.38;47.29
250;BME280;109;19.806;-70.704;2024-03-08T11:37:21;101469.97;;;25.41;47.45
250;BME280;109;19.806;-70.704;2024-03-08T11:39:53;101482.41;;;25.43;47.72
250;BME280;109;19.806;-70.704;2024-03-08T11:42:25;101482.75;;;25.23;47.58
250;BME280;109;19.806;-70.704;2024-03-08T11:44:54;101486.16;;;25.41;47.64
250;BME280;109;19.806;-70.704;2024-03-08T11:47:21;101483.91;;;25.62;47.39
250;BME280;109;19.806;-70.704;2024-03-08T11:49:48;101490.66;;;25.69;47.36
250;BME280;109;19.806;-70.704;2024-03-08T11:52:16;101494.09;;;25.71;47.26
250;BME280;109;19.806;-70.704;2024-03-08T11:54:56;101496.53;;;25.90;47.11
250;BME280;109;19.806;-70.704;2024-03-08T11:57:23;101502.03;;;25.88;47.06
250;BME280;109;19.806;-70.704;2024-03-08T11:59:54;101503.09;;;26.12;47.11
250;BME280;109;19.806;-70.704;2024-03-08T12:02:22;101514.22;;;26.22;46.64
250;BME280;109;19.806;-70.704;2024-03-08T12:04:59;101513.03;;;26.26;46.93
250;BME280;109;19.806;-70.704;2024-03-08T12:07:26;101516.75;;;26.38;46.76
250;BME280;109;19.806;-70.704;2024-03-08T12:10:19;101522.19;;;26.50;46.18
250;BME280;109;19.806;-70.704;2024-03-08T12:12:52;101518.03;;;26.59;46.38
250;BME280;109;19.806;-70.704;2024-03-08T12:15:20;101517.59;;;26.65;46.24
250;BME280;109;19.806;-70.704;2024-03-08T12:17:49;101523.41;;;26.86;45.87
250;BME280;109;19.806;-70.704;2024-03-08T12:20:24;101533.38;;;26.98;45.67
250;BME280;109;19.806;-70.704;2024-03-08T12:22:56;101535.75;;;27.03;46.02
250;BME280;109;19.806;-70.704;2024-03-08T12:25:26;101538.38;;;27.30;45.47
250;BME280;109;19.806;-70.704;2024-03-08T12:27:52;101533.31;;;27.50;44.88
250;BME280;109;19.806;-70.704;2024-03-08T12:30:26;101532.00;;;27.69;45.19
250;BME280;109;19.806;-70.704;2024-03-08T12:32:55;101541.81;;;27.82;44.31
250;BME280;109;19.806;-70.704;2024-03-08T12:35:26;101544.44;;;27.71;44.51
250;BME280;109;19.806;-70.704;2024-03-08T12:37:56;101548.94;;;27.96;44.33
250;BME280;109;19.806;-70.704;2024-03-08T12:40:30;101547.16;;;28.20;44.36
250;BME280;109;19.806;-70.704;2024-03-08T12:42:58;101543.69;;;28.18;43.70
250;BME280;109;19.806;-70.704;2024-03-08T12:45:25;101549.25;;;27.91;44.44
250;BME280;109;19.806;-70.704;2024-03-08T12:47:51;101550.44;;;28.00;43.76
250;BME280;109;19.806;-70.704;2024-03-08T12:50:19;101553.38;;;28.34;43.63
250;BME280;109;19.806;-70.704;2024-03-08T12:52:47;101546.66;;;28.39;43.25
250;BME280;109;19.806;-70.704;2024-03-08T12:55:15;101543.56;;;28.44;43.61
250;BME280;109;19.806;-70.704;2024-03-08T12:57:42;101544.97;;;28.49;43.92
250;BME280;109;19.806;-70.704;2024-03-08T13:00:09;101552.28;;;28.36;43.68
250;BME280;109;19.806;-70.704;2024-03-08T13:02:39;101551.97;;;28.41;43.36
250;BME280;109;19.806;-70.704;2024-03-08T13:05:06;101547.28;;;28.43;43.53
250;BME280;109;19.806;-70.704;2024-03-08T13:07:35;101559.72;;;28.21;43.47
250;BME280;109;19.806;-70.704;2024-03-08T13:10:03;101557.88;;;28.22;44.03
250;BME280;109;19.806;-70.704;2024-03-08T13:12:30;101557.47;;;28.15;44.06
250;BME280;109;19.806;-70.704;2024-03-08T13:14:57;101566.22;;;28.55;43.49
250;BME280;109;19.806;-70.704;2024-03-08T13:17:23;101570.97;;;28.52;43.54
250;BME280;109;19.806;-70.704;2024-03-08T13:19:50;101578.00;;;28.67;44.11
250;BME280;109;19.806;-70.704;2024-03-08T13:22:16;101580.09;;;28.27;43.92
250;BME280;109;19.806;-70.704;2024-03-08T13:24:43;101577.25;;;28.65;43.98
250;BME280;109;19.806;-70.704;2024-03-08T13:27:11;101585.16;;;28.68;43.86
250;BME280;109;19.806;-70.704;2024-03-08T13:29:47;101586.50;;;28.98;43.50
250;BME280;109;19.806;-70.704;2024-03-08T13:32:17;101582.78;;;29.34;43.36
250;BME280;109;19.806;-70.704;2024-03-08T13:34:46;101579.91;;;29.35;42.87
250;BME280;109;19.806;-70.704;2024-03-08T13:37:20;101580.22;;;29.54;42.79
250;BME280;109;19.806;-70.704;2024-03-08T13:39:46;101569.81;;;29.37;41.73
250;BME280;109;19.806;-70.704;2024-03-08T13:42:13;101566.72;;;29.30;42.02
250;BME280;109;19.806;-70.704;2024-03-08T13:44:47;101574.22;;;29.16;43.34
250;BME280;109;19.806;-70.704;2024-03-08T13:47:15;101574.59;;;29.22;42.77
250;BME280;109;19.806;-70.704;2024-03-08T13:49:42;101572.16;;;29.30;42.75
250;BME280;109;19.806;-70.704;2024-03-08T13:52:10;101577.06;;;28.79;42.71
250;BME280;109;19.806;-70.704;2024-03-08T13:54:38;101571.25;;;28.84;43.24
250;BME280;109;19.806;-70.704;2024-03-08T13:57:05;101572.09;;;29.08;42.81
250;BME280;109;19.806;-70.704;2024-03-08T13:59:31;101577.09;;;28.90;42.69
250;BME280;109;19.806;-70.704;2024-03-08T14:02:02;101582.88;;;28.97;42.92
250;BME280;109;19.806;-70.704;2024-03-08T14:04:29;101586.50;;;28.98;42.66
250;BME280;109;19.806;-70.704;2024-03-08T14:06:55;101590.97;;;29.10;42.57
250;BME280;109;19.806;-70.704;2024-03-08T14:09:34;101593.31;;;28.79;42.93
250;BME280;109;19.806;-70.704;2024-03-08T14:12:08;101584.22;;;28.80;42.86
250;BME280;109;19.806;-70.704;2024-03-08T14:14:35;101582.13;;;29.08;42.48
250;BME280;109;19.806;-70.704;2024-03-08T14:17:02;101583.25;;;29.27;42.41
250;BME280;109;19.806;-70.704;2024-03-08T14:19:30;101587.78;;;29.16;42.40
250;BME280;109;19.806;-70.704;2024-03-08T14:22:02;101587.28;;;29.22;42.59
250;BME280;109;19.806;-70.704;2024-03-08T14:24:30;101580.97;;;29.68;41.78
250;BME280;109;19.806;-70.704;2024-03-08T14:26:57;101579.66;;;29.95;42.15
250;BME280;109;19.806;-70.704;2024-03-08T14:29:25;101579.75;;;30.05;41.24
250;BME280;109;19.806;-70.704;2024-03-08T14:31:55;101591.50;;;29.94;41.17
250;BME280;109;19.806;-70.704;2024-03-08T14:34:25;101581.38;;;29.96;42.10
250;BME280;109;19.806;-70.704;2024-03-08T14:36:55;101583.69;;;30.01;42.41
250;BME280;109;19.806;-70.704;2024-03-08T14:39:22;101578.66;;;29.85;42.18
250;BME280;109;19.806;-70.704;2024-03-08T14:41:52;101579.38;;;30.10;42.23
250;BME280;109;19.806;-70.704;2024-03-08T14:44:24;101577.63;;;30.20;42.00
250;BME280;109;19.806;-70.704;2024-03-08T14:46:55;101582.97;;;30.10;42.32
250;BME280;109;19.806;-70.704;2024-03-08T14:49:23;101584.19;;;29.84;42.30
250;BME280;109;19.806;-70.704;2024-03-08T14:51:49;101577.66;;;29.86;42.22
250;BME280;109;19.806;-70.704;2024-03-08T14:54:16;101578.25;;;29.79;42.26
250;BME280;109;19.806;-70.704;2024-03-08T14:56:42;101573.34;;;29.73;42.09
250;BME280;109;19.806;-70.704;2024-03-08T14:59:09;101565.91;;;29.52;43.02
250;BME280;109;19.806;-70.704;2024-03-08T15:01:35;101562.94;;;29.78;42.08
250;BME280;109;19.806;-70.704;2024-03-08T15:04:02;101566.41;;;29.69;43.36
250;BME280;109;19.806;-70.704;2024-03-08T15:06:37;101560.00;;;29.81;43.14
250;BME280;109;19.806;-70.704;2024-03-08T15:09:05;101560.75;;;29.72;43.38
250;BME280;109;19.806;-70.704;2024-03-08T15:11:47;101551.34;;;30.09;42.20
250;BME280;109;19.806;-70.704;2024-03-08T15:14:16;101561.44;;;30.18;42.73
250;BME280;109;19.806;-70.704;2024-03-08T15:16:42;101561.28;;;30.42;42.33
250;BME280;109;19.806;-70.704;2024-03-08T15:19:09;101560.56;;;30.29;43.00
250;BME280;109;19.806;-70.704;2024-03-08T15:21:38;101556.50;;;30.34;42.40
250;BME280;109;19.806;-70.704;2024-03-08T15:24:04;101554.78;;;30.00;42.89
250;BME280;109;19.806;-70.704;2024-03-08T15:26:36;101549.00;;;29.71;43.70
250;BME280;109;19.806;-70.704;2024-03-08T15:29:02;101540.47;;;29.76;43.62
250;BME280;109;19.806;-70.704;2024-03-08T15:31:30;101542.72;;;29.93;44.04
250;BME280;109;19.806;-70.704;2024-03-08T15:33:58;101546.66;;;29.89;44.10
250;BME280;109;19.806;-70.704;2024-03-08T15:36:29;101544.56;;;29.92;43.63
250;BME280;109;19.806;-70.704;2024-03-08T15:38:59;101532.34;;;29.64;44.34
250;BME280;109;19.806;-70.704;2024-03-08T15:41:27;101531.38;;;29.43;44.88
250;BME280;109;19.806;-70.704;2024-03-08T15:43:55;101529.09;;;30.04;44.33
250;BME280;109;19.806;-70.704;2024-03-08T15:46:22;101532.81;;;30.03;43.63
250;BME280;109;19.806;-70.704;2024-03-08T15:48:49;101531.34;;;29.77;44.39
250;BME280;109;19.806;-70.704;2024-03-08T15:51:15;101521.47;;;29.98;44.41
250;BME280;109;19.806;-70.704;2024-03-08T15:53:44;101527.88;;;30.08;43.92
250;BME280;109;19.806;-70.704;2024-03-08T15:56:19;101527.88;;;30.08;44.57
250;BME280;109;19.806;-70.704;2024-03-08T15:58:52;101534.56;;;29.82;44.30
250;BME280;109;19.806;-70.704;2024-03-08T16:01:19;101525.38;;;30.16;44.33
250;BME280;109;19.806;-70.704;2024-03-08T16:03:46;101531.16;;;30.34;44.27
250;BME280;109;19.806;-70.704;2024-03-08T16:06:19;101525.44;;;29.94;43.79
250;BME280;109;19.806;-70.704;2024-03-08T16:08:49;101527.53;;;29.68;44.44
250;BME280;109;19.806;-70.704;2024-03-08T16:11:16;101523.94;;;29.90;43.81
250;BME280;109;19.806;-70.704;2024-03-08T16:13:44;101516.91;;;29.65;44.44
250;BME280;109;19.806;-70.704;2024-03-08T16:16:10;101514.31;;;29.75;43.93
250;BME280;109;19.806;-70.704;2024-03-08T16:18:38;101512.97;;;29.91;44.11
250;BME280;109;19.806;-70.704;2024-03-08T16:21:05;101513.28;;;30.09;44.25
250;BME280;109;19.806;-70.704;2024-03-08T16:23:33;101506.88;;;30.10;43.73
250;BME280;109;19.806;-70.704;2024-03-08T16:26:01;101500.41;;;30.33;43.68
250;BME280;109;19.806;-70.704;2024-03-08T16:28:27;101498.72;;;30.10;43.76
250;BME280;109;19.806;-70.704;2024-03-08T16:30:54;101495.22;;;30.30;43.74
250;BME280;109;19.806;-70.704;2024-03-08T16:33:22;101490.91;;;30.17;43.86
250;BME280;109;19.806;-70.704;2024-03-08T16:35:51;101490.84;;;30.39;43.61
250;BME280;109;19.806;-70.704;2024-03-08T16:38:19;101494.72;;;30.57;43.97
250;BME280;109;19.806;-70.704;2024-03-08T16:40:49;101488.25;;;30.90;42.67
250;BME280;109;19.806;-70.704;2024-03-08T16:43:19;101482.16;;;30.98;43.44
250;BME280;109;19.806;-70.704;2024-03-08T16:45:48;101467.81;;;30.96;42.70
250;BME280;109;19.806;-70.704;2024-03-08T16:48:19;101449.94;;;31.03;42.65
250;BME280;109;19.806;-70.704;2024-03-08T16:50:49;101445.88;;;30.88;41.80
250;BME280;109;19.806;-70.704;2024-03-08T16:53:15;101442.38;;;31.07;43.32
250;BME280;109;19.806;-70.704;2024-03-08T16:55:42;101447.94;;;31.26;42.29
250;BME280;109;19.806;-70.704;2024-03-08T16:58:10;101443.66;;;30.82;42.50
250;BME280;109;19.806;-70.704;2024-03-08T17:00:40;101434.19;;;31.07;42.59
250;BME280;109;19.806;-70.704;2024-03-08T17:03:08;101431.75;;;31.34;42.24
250;BME280;109;19.806;-70.704;2024-03-08T17:05:34;101437.34;;;31.32;42.29
250;BME280;109;19.806;-70.704;2024-03-08T17:08:03;101429.16;;;31.23;42.35
250;BME280;109;19.806;-70.704;2024-03-08T17:10:36;101424.44;;;31.25;42.58
250;BME280;109;19.806;-70.704;2024-03-08T17:13:03;101432.25;;;30.88;42.90
250;BME280;109;19.806;-70.704;2024-03-08T17:15:32;101426.06;;;30.65;43.36
250;BME280;109;19.806;-70.704;2024-03-08T17:18:01;101418.84;;;30.96;42.86
250;BME280;109;19.806;-70.704;2024-03-08T17:20:35;101425.41;;;30.52;43.85
250;BME280;109;19.806;-70.704;2024-03-08T17:23:07;101421.38;;;30.88;43.83
250;BME280;109;19.806;-70.704;2024-03-08T17:25:34;101432.38;;;30.65;43.60
250;BME280;109;19.806;-70.704;2024-03-08T17:28:02;101424.06;;;30.67;43.99
250;BME280;109;19.806;-70.704;2024-03-08T17:30:30;101421.47;;;31.07;43.46
250;BME280;109;19.806;-70.704;2024-03-08T17:32:59;101415.97;;;30.97;43.04
250;BME280;109;19.806;-70.704;2024-03-08T17:35:31;101416.56;;;31.31;43.20
250;BME280;109;19.806;-70.704;2024-03-08T17:38:01;101404.81;;;31.31;42.72
250;BME280;109;19.806;-70.704;2024-03-08T17:40:39;101402.38;;;30.97;42.89
250;BME280;109;19.806;-70.704;2024-03-08T17:43:07;101405.34;;;30.94;43.77
250;BME280;109;19.806;-70.704;2024-03-08T17:45:37;101392.84;;;31.13;43.54
250;BME280;109;19.806;-70.704;2024-03-08T17:48:09;101387.63;;;31.00;43.47
250;BME280;109;19.806;-70.704;2024-03-08T17:50:40;101383.31;;;30.97;43.54
250;BME280;109;19.806;-70.704;2024-03-08T17:53:06;101374.63;;;30.73;43.81
250;BME280;109;19.806;-70.704;2024-03-08T17:55:33;101379.50;;;30.79;43.53
250;BME280;109;19.806;-70.704;2024-03-08T17:58:00;101362.81;;;31.14;43.30
250;BME280;109;19.806;-70.704;2024-03-08T18:00:26;101365.88;;;31.00;43.51
250;BME280;109;19.806;-70.704;2024-03-08T18:02:53;101364.81;;;31.22;43.07
250;BME280;109;19.806;-70.704;2024-03-08T18:05:21;101357.59;;;31.11;43.71
250;BME280;109;19.806;-70.704;2024-03-08T18:07:51;101353.66;;;30.94;43.79
250;BME280;109;19.806;-70.704;2024-03-08T18:10:17;101354.06;;;31.20;42.65
250;BME280;109;19.806;-70.704;2024-03-08T18:12:51;101346.47;;;31.14;43.35
250;BME280;109;19.806;-70.704;2024-03-08T18:15:18;101342.59;;;31.17;42.85
250;BME280;109;19.806;-70.704;2024-03-08T18:17:55;101332.75;;;31.25;43.08
250;BME280;109;19.806;-70.704;2024-03-08T18:20:25;101336.47;;;31.15;43.24
250;BME280;109;19.806;-70.704;2024-03-08T18:22:58;101337.81;;;31.09;42.92
250;BME280;109;19.806;-70.704;2024-03-08T18:25:25;101334.94;;;31.01;44.03
250;BME280;109;19.806;-70.704;2024-03-08T18:27:57;101328.88;;;30.88;43.37
250;BME280;109;19.806;-70.704;2024-03-08T18:30:26;101327.09;;;30.47;43.83
250;BME280;109;19.806;-70.704;2024-03-08T18:32:52;101341.13;;;30.52;44.22
250;BME280;109;19.806;-70.704;2024-03-08T18:35:20;101323.16;;;30.60;44.70
250;BME280;109;19.806;-70.704;2024-03-08T18:37:48;101322.25;;;30.50;44.29
250;BME280;109;19.806;-70.704;2024-03-08T18:40:17;101321.72;;;30.66;44.49
250;BME280;109;19.806;-70.704;2024-03-08T18:42:45;101319.31;;;30.63;44.37
250;BME280;109;19.806;-70.704;2024-03-08T18:45:13;101324.44;;;30.66;43.73
250;BME280;109;19.806;-70.704;2024-03-08T18:47:42;101307.00;;;30.68;43.68
250;BME280;109;19.806;-70.704;2024-03-08T18:50:10;101308.97;;;30.87;44.11
250;BME280;109;19.806;-70.704;2024-03-08T18:52:40;101300.72;;;30.98;43.67
250;BME280;109;19.806;-70.704;2024-03-08T18:55:07;101307.78;;;30.50;43.90
250;BME280;109;19.806;-70.704;2024-03-08T18:57:47;101304.91;;;30.72;43.83
250;BME280;109;19.806;-70.704;2024-03-08T19:00:18;101307.13;;;30.88;43.80
250;BME280;109;19.806;-70.704;2024-03-08T19:02:53;101305.13;;;30.90;43.24
250;BME280;109;19.806;-70.704;2024-03-08T19:05:21;101305.06;;;30.80;42.94
250;BME280;109;19.806;-70.704;2024-03-08T19:07:49;101297.94;;;30.58;43.56
250;BME280;109;19.806;-70.704;2024-03-08T19:10:17;101290.66;;;30.59;44.06
250;BME280;109;19.806;-70.704;2024-03-08T19:12:49;101290.31;;;30.52;43.44
250;BME280;109;19.806;-70.704;2024-03-08T19:15:18;101289.78;;;30.58;43.32
250;BME280;109;19.806;-70.704;2024-03-08T19:17:50;101289.44;;;30.52;42.66
250;BME280;109;19.806;-70.704;2024-03-08T19:20:18;101294.66;;;30.64;43.20
250;BME280;109;19.806;-70.704;2024-03-08T19:22:48;101291.91;;;30.76;42.90
250;BME280;109;19.806;-70.704;2024-03-08T19:25:24;101288.47;;;30.83;42.79
250;BME280;109;19.806;-70.704;2024-03-08T19:27:56;101281.78;;;30.87;42.44
250;BME280;109;19.806;-70.704;2024-03-08T19:30:29;101282.03;;;30.75;42.76
250;BME280;109;19.806;-70.704;2024-03-08T19:32:58;101293.91;;;30.53;43.46
250;BME280;109;19.806;-70.704;2024-03-08T19:35:25;101284.66;;;30.95;42.41
250;BME280;109;19.806;-70.704;2024-03-08T19:37:55;101282.50;;;30.89;42.44
250;BME280;109;19.806;-70.704;2024-03-08T19:40:23;101281.38;;;30.61;43.09
250;BME280;109;19.806;-70.704;2024-03-08T19:42:52;101281.75;;;30.57;43.32
250;BME280;109;19.806;-70.704;2024-03-08T19:45:25;101282.63;;;30.57;43.04
250;BME280;109;19.806;-70.704;2024-03-08T19:47:56;101269.28;;;30.24;43.40
250;BME280;109;19.806;-70.704;2024-03-08T19:50:27;101273.78;;;30.34;43.67
250;BME280;109;19.806;-70.704;2024-03-08T19:52:55;101276.09;;;30.39;43.79
250;BME280;109;19.806;-70.704;2024-03-08T19:55:30;101274.09;;;30.41;43.45
250;BME280;109;19.806;-70.704;2024-03-08T19:57:59;101277.63;;;30.32;43.51
250;BME280;109;19.806;-70.704;2024-03-08T20:00:26;101277.38;;;30.35;43.46
250;BME280;109;19.806;-70.704;2024-03-08T20:02:55;101280.72;;;30.48;43.69
250;BME280;109;19.806;-70.704;2024-03-08T20:05:23;101274.22;;;30.40;43.57
250;BME280;109;19.806;-70.704;2024-03-08T20:07:54;101278.56;;;30.21;43.78
250;BME280;109;19.806;-70.704;2024-03-08T20:10:31;101273.66;;;30.36;43.67
250;BME280;109;19.806;-70.704;2024-03-08T20:13:03;101276.28;;;30.47;43.76
250;BME280;109;19.806;-70.704;2024-03-08T20:15:36;101279.03;;;30.57;44.21
250;BME280;109;19.806;-70.704;2024-03-08T20:18:18;101284.72;;;30.44;43.39
250;BME280;109;19.806;-70.704;2024-03-08T20:20:49;101281.00;;;30.24;43.97
250;BME280;109;19.806;-70.704;2024-03-08T20:23:21;101273.97;;;30.43;44.45
250;BME280;109;19.806;-70.704;2024-03-08T20:25:49;101281.72;;;30.26;44.01
250;BME280;109;19.806;-70.704;2024-03-08T20:28:16;101267.38;;;29.94;44.64
250;BME280;109;19.806;-70.704;2024-03-08T20:30:43;101284.97;;;29.99;44.25
250;BME280;109;19.806;-70.704;2024-03-08T20:33:10;101283.66;;;29.94;44.51
250;BME280;109;19.806;-70.704;2024-03-08T20:35:38;101283.56;;;29.84;44.32
250;BME280;109;19.806;-70.704;2024-03-08T20:38:11;101276.78;;;29.79;44.51
250;BME280;109;19.806;-70.704;2024-03-08T20:40:40;101272.59;;;29.75;44.26
250;BME280;109;19.806;-70.704;2024-03-08T20:43:11;101273.31;;;29.88;44.72
250;BME280;109;19.806;-70.704;2024-03-08T20:45:40;101274.38;;;29.64;44.37
250;BME280;109;19.806;-70.704;2024-03-08T20:48:08;101272.59;;;29.86;44.14
250;BME280;109;19.806;-70.704;2024-03-08T20:50:34;101277.03;;;29.76;44.02
250;BME280;109;19.806;-70.704;2024-03-08T20:53:04;101273.47;;;29.54;44.40
250;BME280;109;19.806;-70.704;2024-03-08T20:55:34;101275.13;;;29.67;44.46
250;BME280;109;19.806;-70.704;2024-03-08T20:58:01;101279.13;;;29.51;44.90
250;BME280;109;19.806;-70.704;2024-03-08T21:00:27;101276.59;;;29.71;44.58
250;BME280;109;19.806;-70.704;2024-03-08T21:03:01;101276.03;;;29.88;44.25
250;BME280;109;19.806;-70.704;2024-03-08T21:05:32;101277.09;;;29.64;44.44
250;BME280;109;19.806;-70.704;2024-03-08T21:08:00;101268.94;;;29.33;44.41
250;BME280;109;19.806;-70.704;2024-03-08T21:10:27;101271.53;;;29.45;44.44
250;BME280;109;19.806;-70.704;2024-03-08T21:12:56;101275.63;;;29.28;44.83
250;BME280;109;19.806;-70.704;2024-03-08T21:15:23;101270.31;;;29.27;44.71
250;BME280;109;19.806;-70.704;2024-03-08T21:17:50;101274.59;;;29.41;44.63
250;BME280;109;19.806;-70.704;2024-03-08T21:20:20;101279.44;;;29.26;44.66
250;BME280;109;19.806;-70.704;2024-03-08T21:22:47;101278.41;;;29.38;44.62
250;BME280;109;19.806;-70.704;2024-03-08T21:25:14;101283.94;;;29.05;44.89
250;BME280;109;19.806;-70.704;2024-03-08T21:27:45;101281.97;;;29.07;44.71
250;BME280;109;19.806;-70.704;2024-03-08T21:30:20;101287.38;;;28.84;45.14
250;BME280;109;19.806;-70.704;2024-03-08T21:32:48;101294.75;;;28.82;45.10
250;BME280;109;19.806;-70.704;2024-03-08T21:35:15;101287.63;;;28.70;45.58
250;BME280;109;19.806;-70.704;2024-03-08T21:37:41;101290.81;;;28.86;45.34
250;BME280;109;19.806;-70.704;2024-03-08T21:40:08;101290.97;;;28.63;45.89
250;BME280;109;19.806;-70.704;2024-03-08T21:42:38;101287.75;;;28.57;45.83
250;BME280;109;19.806;-70.704;2024-03-08T21:45:06;101287.78;;;28.69;45.67
250;BME280;109;19.806;-70.704;2024-03-08T21:47:34;101288.25;;;28.63;45.75
250;BME280;109;19.806;-70.704;2024-03-08T21:50:05;101286.09;;;28.44;46.64
250;BME280;109;19.806;-70.704;2024-03-08T21:52:31;101284.69;;;28.62;46.17
250;BME280;109;19.806;-70.704;2024-03-08T21:54:58;101288.72;;;28.56;46.33
250;BME280;109;19.806;-70.704;2024-03-08T21:57:24;101290.41;;;28.46;46.09
250;BME280;109;19.806;-70.704;2024-03-08T21:59:51;101297.56;;;28.36;46.51
250;BME280;109;19.806;-70.704;2024-03-08T22:02:21;101281.16;;;28.15;46.46
250;BME280;109;19.806;-70.704;2024-03-08T22:04:48;101291.25;;;28.13;46.84
250;BME280;109;19.806;-70.704;2024-03-08T22:07:14;101290.56;;;27.99;46.88
250;BME280;109;19.806;-70.704;2024-03-08T22:09:40;101297.31;;;28.04;47.28
250;BME280;109;19.806;-70.704;2024-03-08T22:12:07;101293.38;;;27.97;47.57
250;BME280;109;19.806;-70.704;2024-03-08T22:14:35;101303.69;;;27.92;47.00
250;BME280;109;19.806;-70.704;2024-03-08T22:17:03;101304.72;;;27.91;47.70
250;BME280;109;19.806;-70.704;2024-03-08T22:19:29;101305.38;;;27.82;47.75
250;BME280;109;19.806;-70.704;2024-03-08T22:21:56;101309.81;;;27.83;48.19
250;BME280;109;19.806;-70.704;2024-03-08T22:24:22;101313.13;;;27.75;47.97
250;BME280;109;19.806;-70.704;2024-03-08T22:26:49;101314.78;;;27.89;47.75